Culpeper, Virginia
Current Conditions -  °F | °C
As of 9:55 PM on Friday 21 Nov 2014 (Local Time) from KCJR Reporting Station
Clear Clear  
Wind Chill: 19°   Ceiling: Unl
Heat Index: 19°   Visibility: 10mi
Dew Point: 12°   Wind: 0mph
Humidity: 74%   Direction: NA
Pressure: 30.55"   Gusts: NA
Location:  38.47°N, 78°W
Report Text: KCJR 220255Z AUTO 00000KT 10SM CLR M07/M11 A3055 RMK AO2
Loading
Personal Weather Stations






























Interactive Weather Map New forecast layout! Learn more

10-Day Weather Forecast

Advertisements
Track Severe Weather on mobile